Latest Weather Observations for Sydney Olympic Park

IDN60901

Issued at 6:02 pm EST Saturday 5 September 2026 (issued every 10 minutes, with the page automatically refreshed every 10 minutes)

About weather observations | Map of Sydney area stations | Latest observations for Sydney area | Other Formats
Station Details ID: 066212 Name: SYDNEY OLYMPIC PARK AWS (ARCHERY CENTRE) Lat: -33.83 Lon: 151.07 Height: 4.0 m
Data from the previous 72 hours. | See also: Recent months at Sydney Olympic Park
Date/Time
EST
Temp
°C
App
Temp
°C
Dew
Point
°C
Rel
Hum
%
Delta-T
°C
Wind Press
QNH
hPa
Press
MSL
hPa
Rain since
9am
mm
Dir  Spd
km/h
Gust
km/h
Spd
kts
Gust
kts
05/06:00pm 21.8 19.5 12.9 57 5.1 NNW 17 26 9 14 - - 0.2
05/05:30pm 20.6 20.3 14.5 68 3.6 NW 9 17 5 9 - - 0.2
05/05:00pm 20.5 19.1 14.6 69 3.4 WNW 15 28 8 15 - - 0.0
05/04:37pm 20.8 19.0 14.5 67 3.7 WNW 17 35 9 19 - - 0.0
05/04:30pm 21.3 18.5 14.2 64 4.1 W 22 43 12 23 - - 0.0
05/04:24pm 22.0 17.0 13.4 58 5.0 W 32 65 17 35 - - 0.0
05/04:16pm 26.0 20.6 11.0 39 8.5 W 30 65 16 35 - - 0.0
05/04:14pm 26.9 21.6 9.7 34 9.5 WSW 28 65 15 35 - - 0.0
05/04:00pm 29.5 24.9 8.0 26 11.7 W 22 43 12 23 - - 0.0
05/03:31pm 29.6 25.5 8.6 27 11.6 W 20 41 11 22 - - 0.0
05/03:30pm 29.7 25.5 8.2 26 11.8 W 20 41 11 22 - - 0.0
05/03:04pm 31.6 25.5 6.6 21 13.5 WNW 28 50 15 27 - - 0.0
05/03:00pm 31.5 25.9 7.2 22 13.2 WNW 26 44 14 24 - - 0.0
05/02:55pm 31.7 26.8 6.7 21 13.5 WNW 22 43 12 23 - - 0.0
05/02:45pm 31.9 25.9 6.9 21 13.6 NW 28 50 15 27 - - 0.0
05/02:30pm 32.5 27.5 8.0 22 13.6 NW 24 44 13 24 - - 0.0
05/02:00pm 32.0 27.2 8.9 24 12.9 NNW 24 46 13 25 - - 0.0
05/01:30pm 31.0 25.9 9.3 26 12.2 NNW 26 41 14 22 - - 0.0
05/01:00pm 29.9 25.7 9.9 29 11.3 NNW 22 39 12 21 - - 0.0
05/12:30pm 29.0 24.6 7.6 26 11.6 NNW 20 41 11 22 - - 0.0
05/12:00pm 28.4 24.2 8.1 28 11.0 NNW 20 35 11 19 - - 0.0
05/11:30am 28.3 24.3 8.1 28 11.0 NNW 19 30 10 16 - - 0.0
05/11:00am 27.6 24.8 8.5 30 10.4 NNW 13 20 7 11 - - 0.0
05/10:30am 26.8 23.8 7.8 30 10.2 NW 13 22 7 12 - - 0.0
05/10:00am 25.6 22.8 8.6 34 9.2 NW 13 30 7 16 - - 0.0
05/09:30am 24.8 22.9 9.1 37 8.5 NW 9 19 5 10 - - 0.0
05/09:00am 23.2 21.7 10.6 45 7.0 NW 9 17 5 9 - - 0.0
05/08:30am 21.0 20.3 11.9 56 5.1 NNW 7 15 4 8 - - 0.0
05/08:29am 20.7 20.2 12.7 60 4.5 NW 7 15 4 8 - - 0.0
05/08:00am 15.6 17.2 14.8 95 0.5 CALM 0 0 0 0 - - 0.0
05/07:30am 13.1 13.9 12.5 96 0.3 CALM 0 0 0 0 - - 0.0
05/07:00am 11.4 11.6 10.6 95 0.4 CALM 0 0 0 0 - - 0.0
05/06:30am 11.0 11.1 10.2 95 0.4 CALM 0 0 0 0 - - 0.0
05/06:00am 11.1 11.2 10.3 95 0.4 CALM 0 0 0 0 - - 0.0
05/05:30am 11.1 11.2 10.2 94 0.5 CALM 0 0 0 0 - - 0.0
05/05:00am 11.4 11.6 10.5 94 0.5 CALM 0 0 0 0 - - 0.0
05/04:30am 11.3 11.5 10.4 94 0.5 CALM 0 0 0 0 - - 0.0
05/04:00am 11.3 11.5 10.4 94 0.5 CALM 0 0 0 0 - - 0.0
05/03:30am 11.3 11.4 10.2 93 0.6 CALM 0 0 0 0 - - 0.0
05/03:00am 11.4 11.5 10.3 93 0.6 CALM 0 0 0 0 - - 0.0
05/02:30am 11.6 11.7 10.3 92 0.7 CALM 0 0 0 0 - - 0.0
05/02:00am 11.7 11.8 10.3 91 0.7 CALM 0 0 0 0 - - 0.0
05/01:30am 11.7 11.8 10.3 91 0.7 CALM 0 0 0 0 - - 0.0
05/01:00am 12.0 12.2 10.4 90 0.8 CALM 0 0 0 0 - - 0.0
05/12:30am 12.2 11.6 10.4 89 0.9 NW 4 6 2 3 - - 0.0
05/12:00am 12.5 12.7 10.4 87 1.1 CALM 0 0 0 0 - - 0.0
 
Date/Time
EST
Temp
°C
App
Temp
°C
Dew
Point
°C
Rel
Hum
%
Delta-T
°C
Wind Press
QNH
hPa
Press
MSL
hPa
Rain since
9am
mm
Dir  Spd
km/h
Gust
km/h
Spd
kts
Gust
kts
04/11:30pm 12.8 13.0 10.7 87 1.1 CALM 0 0 0 0 - - 0.0
04/11:00pm 13.3 12.7 10.5 83 1.5 NW 4 6 2 3 - - 0.0
04/10:30pm 13.9 14.1 10.5 80 1.8 CALM 0 0 0 0 - - 0.0
04/10:00pm 14.6 14.9 10.8 78 2.0 CALM 0 0 0 0 - - 0.0
04/09:30pm 15.5 14.6 10.7 73 2.5 ESE 6 7 3 4 - - 0.0
04/09:00pm 16.6 15.5 10.7 68 3.1 ESE 7 11 4 6 - - 0.0
04/08:30pm 16.4 15.3 10.7 69 3.0 S 7 11 4 6 - - 0.0
04/08:00pm 17.2 16.2 10.3 64 3.7 ENE 6 9 3 5 - - 0.0
04/07:30pm 16.7 16.1 10.3 66 3.4 ENE 4 9 2 5 - - 0.0
04/07:00pm 17.5 16.4 9.9 61 4.0 E 6 11 3 6 - - 0.0
04/06:30pm 18.9 17.4 9.1 53 5.1 ENE 7 11 4 6 - - 0.0
04/06:00pm 19.7 17.7 8.7 49 5.7 NE 9 15 5 8 - - 0.0
04/05:30pm 20.3 19.0 9.8 51 5.6 ENE 7 15 4 8 - - 0.0
04/05:00pm 21.3 19.2 9.9 48 6.1 E 11 15 6 8 - - 0.0
04/04:30pm 23.3 21.2 5.7 32 8.9 NNW 6 13 3 7 - - 0.0
04/04:00pm 24.1 21.6 5.0 29 9.6 NNW 7 15 4 8 - - 0.0
04/03:30pm 24.1 22.0 6.8 33 9.0 ENE 7 11 4 6 - - 0.0
04/03:00pm 24.0 21.7 5.8 31 9.3 WNW 7 13 4 7 - - 0.0
04/02:30pm 24.0 22.1 9.2 39 8.0 NNW 9 13 5 7 - - 0.0
04/02:00pm 23.0 19.8 5.0 31 9.0 NNW 11 19 6 10 - - 0.0
04/01:30pm 22.9 20.5 5.3 32 8.8 WSW 7 13 4 7 - - 0.0
04/01:00pm 22.6 19.7 4.6 31 8.9 WSW 9 17 5 9 - - 0.0
04/12:30pm 22.9 20.5 7.1 36 8.2 NW 9 15 5 8 - - 0.0
04/12:00pm 21.7 19.0 5.6 35 8.0 NW 9 19 5 10 - - 0.0
04/11:30am 22.1 19.3 8.6 42 7.1 WNW 13 20 7 11 - - 0.0
04/11:00am 21.2 18.8 8.5 44 6.7 NW 11 22 6 12 - - 0.0
04/10:30am 20.7 18.5 7.7 43 6.7 WNW 9 20 5 11 - - 0.0
04/10:00am 19.7 16.9 8.4 48 5.9 WNW 13 22 7 12 - - 0.0
04/09:30am 18.4 15.9 8.1 51 5.3 WSW 11 19 6 10 - - 0.0
04/09:00am 18.3 16.3 8.8 54 4.9 W 9 17 5 9 - - 0.0
04/08:30am 17.5 16.0 9.2 58 4.3 WNW 7 13 4 7 - - 0.0
04/08:00am 15.3 13.5 9.4 68 3.0 WNW 9 13 5 7 - - 0.0
04/07:30am 12.7 10.8 9.0 78 1.9 NW 9 13 5 7 - - 0.0
04/07:00am 10.8 8.7 8.4 85 1.2 WNW 9 11 5 6 - - 0.0
04/06:30am 9.7 7.9 7.3 85 1.1 NW 6 7 3 4 - - 0.0
04/06:00am 9.9 8.9 7.2 83 1.3 WNW 2 9 1 5 - - 0.0
04/05:30am 10.4 9.5 7.8 84 1.3 NW 2 9 1 5 - - 0.0
04/05:00am 10.5 9.9 7.4 81 1.5 CALM 0 0 0 0 - - 0.0
04/04:30am 10.6 10.0 7.5 81 1.5 CALM 0 0 0 0 - - 0.0
04/04:00am 11.2 10.7 7.7 79 1.7 CALM 0 0 0 0 - - 0.0
04/03:30am 12.1 10.2 6.6 69 2.6 NW 6 9 3 5 - - 0.0
04/03:00am 12.4 10.5 7.5 72 2.4 NW 7 9 4 5 - - 0.0
04/02:30am 12.9 11.1 7.8 71 2.5 NW 7 11 4 6 - - 0.0
04/02:00am 12.6 10.6 7.3 70 2.6 WNW 7 13 4 7 - - 0.0
04/01:30am 13.9 12.4 7.0 63 3.4 NW 4 11 2 6 - - 0.0
04/01:00am 13.6 11.7 7.4 66 3.0 WNW 7 13 4 7 - - 0.0
04/12:30am 14.6 12.7 6.9 60 3.8 W 6 9 3 5 - - 0.0
04/12:00am 15.7 13.6 6.7 55 4.4 WSW 7 11 4 6 - - 0.0
 
Date/Time
EST
Temp
°C
App
Temp
°C
Dew
Point
°C
Rel
Hum
%
Delta-T
°C
Wind Press
QNH
hPa
Press
MSL
hPa
Rain since
9am
mm
Dir  Spd
km/h
Gust
km/h
Spd
kts
Gust
kts
03/11:30pm 16.3 13.1 6.7 53 4.7 W 13 26 7 14 - - 0.0
03/11:00pm 16.5 13.7 6.9 53 4.7 WSW 11 28 6 15 - - 0.0
03/10:30pm 16.8 14.4 7.2 53 4.8 WSW 9 24 5 13 - - 0.0
03/10:00pm 16.8 14.4 7.2 53 4.8 W 9 15 5 8 - - 0.0
03/09:30pm 17.7 15.6 6.6 48 5.5 W 7 17 4 9 - - 0.0
03/09:00pm 17.5 15.1 7.0 50 5.2 WNW 9 17 5 9 - - 0.0
03/08:30pm 17.6 15.3 5.9 46 5.7 WSW 7 11 4 6 - - 0.0
03/08:00pm 17.1 15.4 7.7 54 4.7 W 6 7 3 4 - - 0.0
03/07:30pm 19.0 16.2 5.1 40 6.7 NW 9 17 5 9 - - 0.0
03/07:00pm 19.3 16.9 5.4 40 6.8 NW 7 15 4 8 - - 0.0
03/06:30pm 21.5 18.2 2.2 28 9.0 W 9 19 5 10 - - 0.0
03/06:00pm 21.7 18.5 2.9 29 8.9 WNW 9 17 5 9 - - 0.0
03/05:30pm 22.6 20.1 4.6 31 8.9 W 7 11 4 6 - - 0.0
03/05:00pm 23.6 20.3 6.4 33 8.8 WNW 13 20 7 11 - - 0.0
03/04:30pm 24.7 20.7 5.0 28 9.9 WNW 15 28 8 15 - - 0.0
03/04:00pm 25.9 21.5 4.9 26 10.6 W 17 30 9 16 - - 0.0
03/03:30pm 26.2 22.2 6.8 29 10.2 WNW 17 30 9 16 - - 0.0
03/03:00pm 26.6 22.3 7.1 29 10.3 WNW 19 32 10 17 - - 0.0
03/02:30pm 26.7 22.3 6.7 28 10.5 WNW 19 37 10 20 - - 0.0
03/02:00pm 27.0 23.2 5.9 26 10.9 W 15 32 8 17 - - 0.0
03/01:30pm 27.0 23.8 6.9 28 10.6 W 13 26 7 14 - - 0.0
03/01:00pm 26.8 23.3 8.7 32 9.8 WSW 17 26 9 14 - - 0.0
03/12:30pm 26.2 22.4 7.7 31 9.9 SSW 17 32 9 17 - - 0.0
03/12:00pm 26.6 23.2 9.0 33 9.6 WSW 17 30 9 16 - - 0.0
03/11:30am 26.4 22.8 8.4 32 9.7 SW 17 32 9 17 - - 0.0
03/11:00am 26.5 22.0 6.0 27 10.6 W 19 37 10 20 - - 0.0
03/10:30am 26.5 22.7 7.5 30 10.1 W 17 33 9 18 - - 0.0
03/10:00am 26.5 23.1 10.6 37 8.9 WNW 19 33 10 18 - - 0.0
03/09:30am 25.4 22.4 10.8 40 8.2 NW 17 30 9 16 - - 0.0
03/09:00am 24.7 22.1 9.4 38 8.3 WNW 13 22 7 12 - - -
03/08:30am 23.7 20.6 10.4 43 7.3 NW 17 30 9 16 - - -
03/08:00am 21.9 19.7 10.7 49 6.1 NW 13 20 7 11 - - -
03/07:30am 18.7 18.0 11.5 63 3.9 NW 6 9 3 5 - - -
03/07:00am 17.8 16.9 10.7 63 3.8 NNW 6 7 3 4 - - -
03/06:30am 18.7 17.6 9.8 56 4.7 NNE 6 9 3 5 - - -
03/06:00am 18.9 17.2 9.9 56 4.8 NNW 9 13 5 7 - - -
03/05:30am 19.7 17.3 10.1 54 5.2 N 13 20 7 11 - - -
03/05:00am 19.3 17.9 10.8 58 4.6 NNW 9 15 5 8 - - -
03/04:30am 18.7 17.8 11.3 62 4.0 WNW 7 9 4 5 - - -
03/04:00am 19.9 18.7 10.3 54 5.2 NW 7 11 4 6 - - -
03/03:30am 20.4 19.0 9.6 50 5.8 NNW 7 13 4 7 - - -
03/03:00am 20.4 18.6 9.6 50 5.8 NW 9 15 5 8 - - 0.0
03/02:30am 20.8 18.3 9.7 49 5.9 NW 13 19 7 10 - - -
03/02:00am 20.7 18.6 9.9 50 5.8 NW 11 19 6 10 - - -
03/01:30am 17.9 17.2 11.5 66 3.5 NW 6 7 3 4 - - -
03/01:00am 18.5 17.4 10.8 61 4.2 NW 7 11 4 6 - - -
03/12:30am 16.0 15.4 12.2 78 2.1 NW 7 11 4 6 - - -
03/12:00am 15.3 14.6 11.5 78 2.0 NNW 6 9 3 5 - - -
 
Date/Time
EST
Temp
°C
App
Temp
°C
Dew
Point
°C
Rel
Hum
%
Delta-T
°C
Wind Press
QNH
hPa
Press
MSL
hPa
Rain since
9am
mm
Dir  Spd
km/h
Gust
km/h
Spd
kts
Gust
kts
02/11:30pm 14.1 14.5 11.1 82 1.6 CALM 0 0 0 0 - - -
02/11:00pm 14.4 14.7 11.0 80 1.8 CALM 0 0 0 0 - - -
02/10:30pm 14.7 15.1 11.1 79 1.9 CALM 0 0 0 0 - - -
02/10:00pm 15.0 15.3 10.8 76 2.2 CALM 0 0 0 0 - - -
02/09:30pm 15.5 15.8 10.9 74 2.4 CALM 0 0 0 0 - - -
02/09:00pm 16.1 16.3 10.4 69 3.0 CALM 0 0 0 0 - - 0.0
02/08:30pm 16.9 16.1 11.0 68 3.2 N 6 11 3 6 - - -
02/08:00pm 17.7 17.3 9.6 59 4.3 NNW 2 7 1 4 - - -
02/07:30pm 19.4 18.1 9.9 54 5.1 NW 7 11 4 6 - - -
02/07:00pm 21.3 19.2 8.2 43 6.8 NW 9 13 5 7 - - -
02/06:30pm 22.5 20.1 8.6 41 7.4 NW 11 15 6 8 - - -

Latest Capital City Observations: Canberra | Sydney | Melbourne | Brisbane | Adelaide | Perth | Hobart | Darwin

Other formats

Comma delimited format used in spreadsheet applications
http://www.bom.gov.au/fwo/IDN60901/IDN60901.95765.axf

JavaScript Object Notation format (JSON) in row-major order
http://www.bom.gov.au/fwo/IDN60901/IDN60901.95765.json

Data quality

Most of these data are generated automatically and are frequently updated. Quality checks on data are not normally performed. It is possible for incorrect values to appear. Refer to information at About Latest Weather Observations and please check the disclaimer before using these data.